Overview Statistics Trail Chart Weather Telemetry Raw packets
 

This is the latest recevied weather packets stored in our database for station/object K4IR. If no packets are shown the sender has not sent any weather packets the latest 10 day(s).

<< 38 39 40 41 42 43 44 >>
Time Temp. Humidity Pressure Rain* Wind** Luminosity Snow
1788047307 24.44° C 95% 1021.2 hPa 0 mm - 0 W/m² -
1788046707 24.44° C 95% 1021 hPa 0 mm - 2 W/m² -
1788046105 25° C 94% 1021.3 hPa 0 mm - 5 W/m² -
1788045502 25° C 93% 1021.1 hPa 0 mm - 9 W/m² -
1788044899 25° C 91% 1021.1 hPa 0 mm - 15 W/m² -
1788044297 25° C 90% 1020.5 hPa 0 mm - 13 W/m² -
1788043694 25.56° C 89% 1020.4 hPa 0 mm - 15 W/m² -
1788043094 25.56° C 88% 1020.7 hPa 0 mm - 20 W/m² -
1788042489 26.11° C 86% 1020.4 hPa 0 mm - 53 W/m² -
1788041887 26.11° C 85% 1020.7 hPa 0 mm - 92 W/m² -
1788041287 26.11° C 86% 1020.8 hPa 0 mm - 134 W/m² -
1788040685 26.11° C 87% 1020.7 hPa 0 mm - 108 W/m² -
1788040080 26.11° C 87% 1020.8 hPa 0 mm - 100 W/m² -
1788039476 26.11° C 87% 1020.8 hPa 0 mm - 119 W/m² -
1788038873 26.11° C 86% 1021 hPa 0 mm - 126 W/m² -
1788038273 26.11° C 86% 1020.9 hPa 0 mm - 138 W/m² -
1788037669 26.11° C 88% 1021.1 hPa 0 mm - 144 W/m² -
1788037069 25.56° C 90% 1020.8 hPa 0.51 mm - 143 W/m² -
1788036467 25.56° C 88% 1020.7 hPa 0 mm - 106 W/m² -
1788035868 26.67° C 84% 1020.6 hPa 0.51 mm - 67 W/m² -
1788035264 27.22° C 84% 1020.8 hPa 0 mm - 107 W/m² -
1788034662 27.22° C 83% 1020.8 hPa 0 mm - 147 W/m² -
1788034057 27.78° C 84% 1020.5 hPa 0 mm - 141 W/m² -
1788033457 27.78° C 83% 1020.5 hPa 0 mm - 157 W/m² -
1788032852 28.33° C 82% 1020.3 hPa 0 mm - 156 W/m² -

* Rain latest hour (hover to see other rain measurements)
** Current wind speed in m/s (hover to see current wind gust speed)